createdAt,value
2023-05-01T00:01:50.375Z,10.10
2023-05-01T00:16:52.529Z,10.07
2023-05-01T00:31:55.081Z,10.02
2023-05-01T00:47:00.768Z,9.94
2023-05-01T01:02:02.477Z,10.04
2023-05-01T01:17:29.778Z,10.07
2023-05-01T01:32:34.258Z,9.72
2023-05-01T01:47:37.056Z,9.66
2023-05-01T02:02:40.131Z,9.61
2023-05-01T02:17:42.497Z,9.54
2023-05-01T02:32:44.674Z,9.48
2023-05-01T02:47:52.599Z,9.54
2023-05-01T03:02:54.897Z,9.51
2023-05-01T03:17:56.812Z,9.65
2023-05-01T03:32:58.667Z,9.74
2023-05-01T03:48:00.872Z,9.78
2023-05-01T04:03:02.928Z,9.81
2023-05-01T04:18:05.093Z,9.84
2023-05-01T04:33:11.678Z,9.96
2023-05-01T04:48:14.072Z,9.96
2023-05-01T05:03:19.216Z,10.01
2023-05-01T05:18:21.232Z,10.01
2023-05-01T05:33:25.115Z,10.43
2023-05-01T05:48:27.889Z,10.67
2023-05-01T06:03:30.406Z,10.81
2023-05-01T06:18:32.341Z,11.09
2023-05-01T07:31:43.018Z,12.30
2023-05-01T07:47:12.448Z,11.66
2023-05-01T08:02:14.501Z,12.09
2023-05-01T08:17:21.497Z,11.85
2023-05-01T08:32:23.914Z,11.82
2023-05-01T08:47:27.770Z,11.82
2023-05-01T09:02:31.491Z,12.02
2023-05-01T09:17:34.765Z,12.36
2023-05-01T09:32:37.514Z,12.34
2023-05-01T09:47:40.188Z,12.35
2023-05-01T10:02:46.311Z,12.48
2023-05-01T10:17:51.695Z,12.48
2023-05-01T10:32:54.108Z,12.23
2023-05-01T10:47:56.300Z,12.37
2023-05-01T11:03:23.159Z,12.81
2023-05-01T11:18:47.626Z,12.87
2023-05-01T11:33:50.125Z,12.87
2023-05-01T11:48:51.984Z,12.72
2023-05-01T12:03:54.282Z,12.81
2023-05-01T12:18:56.606Z,13.27
2023-05-01T12:34:01.306Z,13.55
2023-05-01T12:49:03.317Z,13.79
2023-05-01T13:04:05.330Z,13.82
2023-05-01T13:19:07.713Z,13.82
2023-05-01T13:34:09.865Z,13.76
2023-05-01T13:49:12.473Z,13.79
2023-05-01T14:04:17.374Z,13.79
2023-05-01T14:19:31.492Z,13.90
2023-05-01T14:34:34.101Z,14.23
2023-05-01T14:49:36.233Z,14.22
2023-05-01T15:04:38.197Z,14.29
2023-05-01T15:19:40.154Z,14.30
2023-05-01T15:34:43.069Z,14.24
2023-05-01T15:49:45.055Z,14.29
2023-05-01T16:04:48.025Z,14.08
2023-05-01T16:19:49.996Z,13.92
2023-05-01T16:34:52.025Z,13.73
2023-05-01T16:50:00.491Z,13.67
2023-05-01T17:05:03.083Z,13.53
2023-05-01T17:20:06.529Z,13.47
2023-05-01T17:35:08.893Z,13.45
2023-05-01T17:50:15.173Z,13.34
2023-05-01T18:05:23.293Z,13.12
2023-05-01T18:20:25.699Z,13.03
2023-05-01T18:35:28.292Z,12.91
2023-05-01T18:50:30.549Z,12.81
2023-05-01T19:05:32.925Z,12.56
2023-05-01T19:20:35.176Z,12.59
2023-05-01T19:35:37.621Z,12.40
2023-05-01T19:50:39.457Z,12.32
2023-05-01T20:06:07.658Z,12.30
2023-05-01T20:21:09.559Z,12.19
2023-05-01T20:36:11.772Z,12.03
2023-05-01T20:51:14.797Z,11.87
2023-05-01T21:06:16.776Z,11.78
2023-05-01T21:21:18.806Z,11.70
2023-05-01T21:36:21.241Z,11.56
2023-05-01T21:51:30.201Z,11.51
2023-05-01T22:06:32.541Z,11.49
2023-05-01T22:21:34.617Z,11.46
2023-05-01T22:36:40.862Z,11.34
2023-05-01T22:51:42.764Z,11.14
2023-05-01T23:06:44.841Z,11.06
2023-05-01T23:21:47.043Z,10.99
2023-05-01T23:36:48.964Z,10.88
2023-05-01T23:51:50.829Z,10.69
